sensor_id;sensor_type;location;lat;lon;timestamp;pressure;altitude;pressure_sealevel;temperature;humidity
47670;BME280;33408;52.062;11.722;2024-03-29T00:00:36;99405.41;;;6.16;100.00
47670;BME280;33408;52.062;11.722;2024-03-29T00:03:02;99405.34;;;6.19;100.00
47670;BME280;33408;52.062;11.722;2024-03-29T00:05:28;99409.88;;;6.08;100.00
47670;BME280;33408;52.062;11.722;2024-03-29T00:07:55;99415.06;;;6.05;100.00
47670;BME280;33408;52.062;11.722;2024-03-29T00:10:21;99406.44;;;6.09;100.00
47670;BME280;33408;52.062;11.722;2024-03-29T00:12:46;99398.97;;;5.95;100.00
47670;BME280;33408;52.062;11.722;2024-03-29T00:15:12;99398.56;;;6.15;100.00
47670;BME280;33408;52.062;11.722;2024-03-29T00:17:38;99401.38;;;6.05;100.00
47670;BME280;33408;52.062;11.722;2024-03-29T00:20:04;99405.75;;;6.01;100.00
47670;BME280;33408;52.062;11.722;2024-03-29T00:22:31;99406.44;;;6.09;100.00
47670;BME280;33408;52.062;11.722;2024-03-29T00:24:58;99396.88;;;6.14;100.00
47670;BME280;33408;52.062;11.722;2024-03-29T00:27:23;99409.34;;;5.91;100.00
47670;BME280;33408;52.062;11.722;2024-03-29T00:29:49;99409.91;;;6.07;100.00
47670;BME280;33408;52.062;11.722;2024-03-29T00:32:14;99398.97;;;5.97;100.00
47670;BME280;33408;52.062;11.722;2024-03-29T00:34:40;99396.56;;;5.88;100.00
47670;BME280;33408;52.062;11.722;2024-03-29T00:37:06;99404.22;;;5.89;100.00
47670;BME280;33408;52.062;11.722;2024-03-29T00:39:31;99410.22;;;5.90;100.00
47670;BME280;33408;52.062;11.722;2024-03-29T00:41:58;99401.88;;;5.80;100.00
47670;BME280;33408;52.062;11.722;2024-03-29T00:44:24;99402.75;;;5.77;100.00
47670;BME280;33408;52.062;11.722;2024-03-29T00:46:50;99405.44;;;5.71;100.00
47670;BME280;33408;52.062;11.722;2024-03-29T00:49:15;99395.00;;;5.80;100.00
47670;BME280;33408;52.062;11.722;2024-03-29T00:51:41;99407.66;;;5.90;100.00
47670;BME280;33408;52.062;11.722;2024-03-29T00:54:06;99409.56;;;5.81;100.00
47670;BME280;33408;52.062;11.722;2024-03-29T00:56:32;99409.44;;;5.88;100.00
47670;BME280;33408;52.062;11.722;2024-03-29T00:58:59;99406.09;;;5.81;100.00
47670;BME280;33408;52.062;11.722;2024-03-29T01:01:25;99406.09;;;5.81;100.00
47670;BME280;33408;52.062;11.722;2024-03-29T01:03:51;99404.09;;;5.95;100.00
47670;BME280;33408;52.062;11.722;2024-03-29T01:06:16;99403.31;;;5.92;100.00
47670;BME280;33408;52.062;11.722;2024-03-29T01:08:42;99395.72;;;5.85;100.00
47670;BME280;33408;52.062;11.722;2024-03-29T01:11:08;99402.53;;;5.90;100.00
47670;BME280;33408;52.062;11.722;2024-03-29T01:13:33;99388.84;;;5.88;100.00
47670;BME280;33408;52.062;11.722;2024-03-29T01:16:00;99406.13;;;5.79;100.00
47670;BME280;33408;52.062;11.722;2024-03-29T01:18:26;99399.81;;;5.96;100.00
47670;BME280;33408;52.062;11.722;2024-03-29T01:20:52;99395.44;;;6.02;100.00
47670;BME280;33408;52.062;11.722;2024-03-29T01:23:17;99409.28;;;5.94;100.00
47670;BME280;33408;52.062;11.722;2024-03-29T01:25:43;99406.84;;;5.88;100.00
47670;BME280;33408;52.062;11.722;2024-03-29T01:28:09;99409.25;;;5.97;100.00
47670;BME280;33408;52.062;11.722;2024-03-29T01:30:34;99411.16;;;5.85;100.00
47670;BME280;33408;52.062;11.722;2024-03-29T01:33:01;99410.22;;;5.90;100.00
47670;BME280;33408;52.062;11.722;2024-03-29T01:35:27;99405.16;;;5.87;100.00
47670;BME280;33408;52.062;11.722;2024-03-29T01:37:53;99401.13;;;5.75;100.00
47670;BME280;33408;52.062;11.722;2024-03-29T01:40:18;99400.31;;;5.71;100.00
47670;BME280;33408;52.062;11.722;2024-03-29T01:42:44;99395.38;;;5.62;100.00
47670;BME280;33408;52.062;11.722;2024-03-29T01:45:10;99393.53;;;5.69;100.00
47670;BME280;33408;52.062;11.722;2024-03-29T01:47:36;99385.91;;;5.64;100.00
47670;BME280;33408;52.062;11.722;2024-03-29T01:50:06;99392.81;;;5.62;100.00
47670;BME280;33408;52.062;11.722;2024-03-29T01:52:32;99384.28;;;5.58;100.00
47670;BME280;33408;52.062;11.722;2024-03-29T01:55:00;99386.88;;;5.57;100.00
47670;BME280;33408;52.062;11.722;2024-03-29T01:57:26;99382.16;;;5.79;100.00
47670;BME280;33408;52.062;11.722;2024-03-29T01:59:53;99383.59;;;5.92;100.00
47670;BME280;33408;52.062;11.722;2024-03-29T02:02:20;99391.06;;;6.06;100.00
47670;BME280;33408;52.062;11.722;2024-03-29T02:04:47;99391.78;;;6.11;100.00
47670;BME280;33408;52.062;11.722;2024-03-29T02:07:16;99391.03;;;6.08;100.00
47670;BME280;33408;52.062;11.722;2024-03-29T02:09:42;99399.38;;;6.17;100.00
47670;BME280;33408;52.062;11.722;2024-03-29T02:12:09;99401.47;;;6.00;100.00
47670;BME280;33408;52.062;11.722;2024-03-29T02:14:35;99409.84;;;6.10;100.00
47670;BME280;33408;52.062;11.722;2024-03-29T02:17:04;99423.47;;;6.13;100.00
47670;BME280;33408;52.062;11.722;2024-03-29T02:19:31;99421.81;;;6.12;100.00
47670;BME280;33408;52.062;11.722;2024-03-29T02:21:59;99421.56;;;6.23;100.00
47670;BME280;33408;52.062;11.722;2024-03-29T02:24:27;99426.84;;;6.17;100.00
47670;BME280;33408;52.062;11.722;2024-03-29T02:26:55;99427.63;;;6.20;100.00
47670;BME280;33408;52.062;11.722;2024-03-29T02:29:23;99434.53;;;6.18;100.00
47670;BME280;33408;52.062;11.722;2024-03-29T02:31:49;99444.19;;;6.09;100.00
47670;BME280;33408;52.062;11.722;2024-03-29T02:34:16;99451.03;;;6.08;100.00
47670;BME280;33408;52.062;11.722;2024-03-29T02:36:44;99459.66;;;6.07;100.00
47670;BME280;33408;52.062;11.722;2024-03-29T02:39:11;99466.53;;;6.05;100.00
47670;BME280;33408;52.062;11.722;2024-03-29T02:41:39;99471.06;;;5.91;100.00
47670;BME280;33408;52.062;11.722;2024-03-29T02:44:05;99482.16;;;5.94;100.00
47670;BME280;33408;52.062;11.722;2024-03-29T02:46:32;99474.16;;;6.10;100.00
47670;BME280;33408;52.062;11.722;2024-03-29T02:48:58;99467.22;;;6.13;100.00
47670;BME280;33408;52.062;11.722;2024-03-29T02:51:24;99459.84;;;5.95;100.00
47670;BME280;33408;52.062;11.722;2024-03-29T02:53:51;99455.31;;;6.09;100.00
47670;BME280;33408;52.062;11.722;2024-03-29T02:56:16;99445.25;;;5.95;100.00
47670;BME280;33408;52.062;11.722;2024-03-29T02:58:47;99446.25;;;5.90;100.00
47670;BME280;33408;52.062;11.722;2024-03-29T03:01:13;99439.38;;;5.90;100.00
47670;BME280;33408;52.062;11.722;2024-03-29T03:03:40;99432.63;;;5.84;100.00
47670;BME280;33408;52.062;11.722;2024-03-29T03:06:05;99446.28;;;5.88;100.00
47670;BME280;33408;52.062;11.722;2024-03-29T03:08:32;99451.31;;;5.94;100.00
47670;BME280;33408;52.062;11.722;2024-03-29T03:11:16;99444.41;;;5.95;100.00
47670;BME280;33408;52.062;11.722;2024-03-29T03:13:43;99438.19;;;6.07;100.00
47670;BME280;33408;52.062;11.722;2024-03-29T03:16:11;99434.03;;;6.01;100.00
47670;BME280;33408;52.062;11.722;2024-03-29T03:18:37;99423.66;;;6.06;100.00
47670;BME280;33408;52.062;11.722;2024-03-29T03:21:03;99431.38;;;6.06;100.00
47670;BME280;33408;52.062;11.722;2024-03-29T03:23:29;99426.03;;;6.13;100.00
47670;BME280;33408;52.062;11.722;2024-03-29T03:25:56;99422.59;;;6.14;100.00
47670;BME280;33408;52.062;11.722;2024-03-29T03:28:22;99414.00;;;6.15;100.00
47670;BME280;33408;52.062;11.722;2024-03-29T03:30:49;99407.84;;;6.23;100.00
47670;BME280;33408;52.062;11.722;2024-03-29T03:33:16;99416.50;;;6.20;100.00
47670;BME280;33408;52.062;11.722;2024-03-29T03:35:43;99414.88;;;6.14;100.00
47670;BME280;33408;52.062;11.722;2024-03-29T03:38:09;99409.56;;;6.24;100.00
47670;BME280;33408;52.062;11.722;2024-03-29T03:40:37;99415.72;;;6.15;100.00
47670;BME280;33408;52.062;11.722;2024-03-29T03:43:03;99397.66;;;6.18;100.00
47670;BME280;33408;52.062;11.722;2024-03-29T03:45:34;99401.19;;;6.14;100.00
47670;BME280;33408;52.062;11.722;2024-03-29T03:48:00;99407.38;;;6.03;100.00
47670;BME280;33408;52.062;11.722;2024-03-29T03:50:28;99413.56;;;5.95;100.00
47670;BME280;33408;52.062;11.722;2024-03-29T03:52:54;99413.78;;;5.82;100.00
47670;BME280;33408;52.062;11.722;2024-03-29T03:55:20;99406.91;;;5.84;100.00
47670;BME280;33408;52.062;11.722;2024-03-29T03:57:46;99403.53;;;5.81;100.00
47670;BME280;33408;52.062;11.722;2024-03-29T04:00:13;99413.00;;;5.79;100.00
47670;BME280;33408;52.062;11.722;2024-03-29T04:02:39;99419.03;;;5.78;100.00
47670;BME280;33408;52.062;11.722;2024-03-29T04:05:07;99409.59;;;5.78;100.00
47670;BME280;33408;52.062;11.722;2024-03-29T04:07:34;99393.56;;;5.67;100.00
47670;BME280;33408;52.062;11.722;2024-03-29T04:10:00;99391.09;;;5.61;100.00
47670;BME280;33408;52.062;11.722;2024-03-29T04:12:26;99390.00;;;5.73;100.00
47670;BME280;33408;52.062;11.722;2024-03-29T04:14:53;99389.81;;;5.82;100.00
47670;BME280;33408;52.062;11.722;2024-03-29T04:17:18;99389.88;;;5.79;100.00
47670;BME280;33408;52.062;11.722;2024-03-29T04:19:45;99401.94;;;5.75;100.00
47670;BME280;33408;52.062;11.722;2024-03-29T04:22:10;99399.88;;;5.93;100.00
47670;BME280;33408;52.062;11.722;2024-03-29T04:24:38;99401.91;;;5.77;100.00
47670;BME280;33408;52.062;11.722;2024-03-29T04:27:04;99412.16;;;5.80;100.00
47670;BME280;33408;52.062;11.722;2024-03-29T04:29:31;99426.06;;;5.68;100.00
47670;BME280;33408;52.062;11.722;2024-03-29T04:31:56;99411.50;;;5.70;100.00
47670;BME280;33408;52.062;11.722;2024-03-29T04:34:23;99410.56;;;5.73;100.00
47670;BME280;33408;52.062;11.722;2024-03-29T04:36:48;99396.59;;;5.86;100.00
47670;BME280;33408;52.062;11.722;2024-03-29T04:39:15;99407.06;;;5.77;100.00
47670;BME280;33408;52.062;11.722;2024-03-29T04:41:43;99407.72;;;5.87;100.00
47670;BME280;33408;52.062;11.722;2024-03-29T04:44:11;99413.72;;;5.87;100.00
47670;BME280;33408;52.062;11.722;2024-03-29T04:46:39;99404.75;;;6.07;100.00
47670;BME280;33408;52.062;11.722;2024-03-29T04:49:06;99399.53;;;6.10;100.00
47670;BME280;33408;52.062;11.722;2024-03-29T04:51:32;99382.09;;;6.23;100.00
47670;BME280;33408;52.062;11.722;2024-03-29T04:53:59;99385.59;;;6.22;100.00
47670;BME280;33408;52.062;11.722;2024-03-29T04:56:25;99407.78;;;6.26;100.00
47670;BME280;33408;52.062;11.722;2024-03-29T04:58:54;99413.56;;;6.35;100.00
47670;BME280;33408;52.062;11.722;2024-03-29T05:01:20;99402.44;;;6.35;100.00
47670;BME280;33408;52.062;11.722;2024-03-29T05:03:47;99399.13;;;6.30;100.00
47670;BME280;33408;52.062;11.722;2024-03-29T05:06:15;99392.00;;;6.41;100.00
47670;BME280;33408;52.062;11.722;2024-03-29T05:08:42;99389.53;;;6.36;100.00
47670;BME280;33408;52.062;11.722;2024-03-29T05:11:09;99384.16;;;6.47;100.00
47670;BME280;33408;52.062;11.722;2024-03-29T05:13:39;99378.81;;;6.53;100.00
47670;BME280;33408;52.062;11.722;2024-03-29T05:16:07;99398.63;;;6.51;100.00
47670;BME280;33408;52.062;11.722;2024-03-29T05:18:34;99401.81;;;6.61;100.00
47670;BME280;33408;52.062;11.722;2024-03-29T05:21:01;99405.16;;;6.65;100.00
47670;BME280;33408;52.062;11.722;2024-03-29T05:23:27;99420.81;;;6.57;100.00
47670;BME280;33408;52.062;11.722;2024-03-29T05:25:53;99422.53;;;6.56;100.00
47670;BME280;33408;52.062;11.722;2024-03-29T05:28:20;99430.06;;;6.64;100.00
47670;BME280;33408;52.062;11.722;2024-03-29T05:30:46;99441.91;;;6.73;100.00
47670;BME280;33408;52.062;11.722;2024-03-29T05:33:14;99441.38;;;6.59;100.00
47670;BME280;33408;52.062;11.722;2024-03-29T05:35:41;99442.81;;;6.70;100.00
47670;BME280;33408;52.062;11.722;2024-03-29T05:38:08;99457.03;;;6.49;100.00
47670;BME280;33408;52.062;11.722;2024-03-29T05:40:35;99458.38;;;6.66;100.00
47670;BME280;33408;52.062;11.722;2024-03-29T05:43:03;99459.81;;;6.78;100.00
47670;BME280;33408;52.062;11.722;2024-03-29T05:45:30;99455.22;;;6.90;100.00
47670;BME280;33408;52.062;11.722;2024-03-29T05:47:58;99465.53;;;6.89;100.00
47670;BME280;33408;52.062;11.722;2024-03-29T05:50:26;99478.25;;;6.97;100.00
47670;BME280;33408;52.062;11.722;2024-03-29T05:52:53;99489.31;;;7.00;100.00
47670;BME280;33408;52.062;11.722;2024-03-29T05:55:20;99493.56;;;7.03;100.00
47670;BME280;33408;52.062;11.722;2024-03-29T05:57:47;99510.84;;;6.99;100.00
47670;BME280;33408;52.062;11.722;2024-03-29T06:00:14;99514.03;;;7.09;100.00
47670;BME280;33408;52.062;11.722;2024-03-29T06:02:41;99493.00;;;7.26;100.00
47670;BME280;33408;52.062;11.722;2024-03-29T06:05:10;99499.84;;;7.27;100.00
47670;BME280;33408;52.062;11.722;2024-03-29T06:07:38;99500.78;;;7.24;100.00
47670;BME280;33408;52.062;11.722;2024-03-29T06:10:05;99493.00;;;7.26;100.00
47670;BME280;33408;52.062;11.722;2024-03-29T06:12:34;99503.16;;;7.32;100.00
47670;BME280;33408;52.062;11.722;2024-03-29T06:15:01;99507.47;;;7.32;100.00
47670;BME280;33408;52.062;11.722;2024-03-29T06:17:45;99505.72;;;7.34;100.00
47670;BME280;33408;52.062;11.722;2024-03-29T06:20:12;99515.09;;;7.36;100.00
47670;BME280;33408;52.062;11.722;2024-03-29T06:22:40;99512.63;;;7.32;100.00
47670;BME280;33408;52.062;11.722;2024-03-29T06:25:07;99519.19;;;7.45;100.00
47670;BME280;33408;52.062;11.722;2024-03-29T06:27:35;99519.13;;;7.46;100.00
47670;BME280;33408;52.062;11.722;2024-03-29T06:30:03;99507.44;;;7.33;100.00
47670;BME280;33408;52.062;11.722;2024-03-29T06:32:30;99493.53;;;7.39;100.00
47670;BME280;33408;52.062;11.722;2024-03-29T06:34:56;99498.91;;;7.31;100.00
47670;BME280;33408;52.062;11.722;2024-03-29T06:37:23;99467.97;;;7.31;100.00
47670;BME280;33408;52.062;11.722;2024-03-29T06:39:51;99480.66;;;7.39;100.00
47670;BME280;33408;52.062;11.722;2024-03-29T06:42:18;99478.88;;;7.42;100.00
47670;BME280;33408;52.062;11.722;2024-03-29T06:44:45;99476.97;;;7.49;100.00
47670;BME280;33408;52.062;11.722;2024-03-29T06:47:11;99489.91;;;7.47;100.00
47670;BME280;33408;52.062;11.722;2024-03-29T06:49:38;99489.22;;;7.41;100.00
47670;BME280;33408;52.062;11.722;2024-03-29T06:52:05;99498.47;;;7.48;100.00
47670;BME280;33408;52.062;11.722;2024-03-29T06:54:32;99489.03;;;7.47;100.00
47670;BME280;33408;52.062;11.722;2024-03-29T06:57:00;99489.13;;;7.44;100.00
47670;BME280;33408;52.062;11.722;2024-03-29T06:59:26;99483.06;;;7.45;100.00
47670;BME280;33408;52.062;11.722;2024-03-29T07:01:54;99502.00;;;7.45;100.00
47670;BME280;33408;52.062;11.722;2024-03-29T07:04:22;99497.13;;;7.33;100.00
47670;BME280;33408;52.062;11.722;2024-03-29T07:06:49;99508.81;;;7.46;100.00
47670;BME280;33408;52.062;11.722;2024-03-29T07:09:18;99511.31;;;7.49;100.00
47670;BME280;33408;52.062;11.722;2024-03-29T07:11:45;99519.25;;;7.42;100.00
47670;BME280;33408;52.062;11.722;2024-03-29T07:14:14;99506.50;;;7.36;100.00
47670;BME280;33408;52.062;11.722;2024-03-29T07:16:41;99500.28;;;7.44;100.00
47670;BME280;33408;52.062;11.722;2024-03-29T07:19:08;99497.63;;;7.47;100.00
47670;BME280;33408;52.062;11.722;2024-03-29T07:21:37;99504.75;;;7.38;100.00
47670;BME280;33408;52.062;11.722;2024-03-29T07:24:04;99508.53;;;7.59;100.00
47670;BME280;33408;52.062;11.722;2024-03-29T07:26:31;99501.81;;;7.52;100.00
47670;BME280;33408;52.062;11.722;2024-03-29T07:28:58;99502.59;;;7.55;100.00
47670;BME280;33408;52.062;11.722;2024-03-29T07:31:26;99505.81;;;7.63;100.00
47670;BME280;33408;52.062;11.722;2024-03-29T07:33:53;99498.06;;;7.65;100.00
47670;BME280;33408;52.062;11.722;2024-03-29T07:36:19;99484.91;;;7.73;100.00
47670;BME280;33408;52.062;11.722;2024-03-29T07:38:48;99484.53;;;7.88;100.00
47670;BME280;33408;52.062;11.722;2024-03-29T07:41:15;99475.81;;;7.92;100.00
47670;BME280;33408;52.062;11.722;2024-03-29T07:43:51;99476.66;;;7.93;100.00
47670;BME280;33408;52.062;11.722;2024-03-29T07:46:18;99486.19;;;7.91;100.00
47670;BME280;33408;52.062;11.722;2024-03-29T07:48:46;99490.50;;;7.89;100.00
47670;BME280;33408;52.062;11.722;2024-03-29T07:51:12;99502.59;;;7.88;100.00
47670;BME280;33408;52.062;11.722;2024-03-29T07:53:40;99507.25;;;7.74;100.00
47670;BME280;33408;52.062;11.722;2024-03-29T07:56:07;99497.94;;;7.70;100.00
47670;BME280;33408;52.062;11.722;2024-03-29T07:58:36;99487.50;;;7.73;100.00
47670;BME280;33408;52.062;11.722;2024-03-29T08:01:03;99485.19;;;7.63;100.00
47670;BME280;33408;52.062;11.722;2024-03-29T08:03:29;99489.88;;;7.80;100.00
47670;BME280;33408;52.062;11.722;2024-03-29T08:05:59;99483.06;;;7.79;100.00
47670;BME280;33408;52.062;11.722;2024-03-29T08:08:30;99494.84;;;7.88;100.00
47670;BME280;33408;52.062;11.722;2024-03-29T08:10:57;99501.06;;;7.81;100.00
47670;BME280;33408;52.062;11.722;2024-03-29T08:13:24;99495.72;;;7.87;100.00
47670;BME280;33408;52.062;11.722;2024-03-29T08:15:57;99507.50;;;7.97;100.00
47670;BME280;33408;52.062;11.722;2024-03-29T08:18:24;99507.66;;;7.91;100.00
47670;BME280;33408;52.062;11.722;2024-03-29T08:20:52;99501.31;;;8.03;100.00
47670;BME280;33408;52.062;11.722;2024-03-29T08:23:21;99497.13;;;7.99;100.00
47670;BME280;33408;52.062;11.722;2024-03-29T08:25:48;99501.72;;;7.89;100.00
47670;BME280;33408;52.062;11.722;2024-03-29T08:28:17;99508.00;;;8.10;100.00
47670;BME280;33408;52.062;11.722;2024-03-29T08:30:43;99518.63;;;7.99;100.00
47670;BME280;33408;52.062;11.722;2024-03-29T08:33:10;99503.59;;;8.14;100.00
47670;BME280;33408;52.062;11.722;2024-03-29T08:35:41;99512.50;;;8.03;100.00
47670;BME280;33408;52.062;11.722;2024-03-29T08:38:08;99522.41;;;8.17;100.00
47670;BME280;33408;52.062;11.722;2024-03-29T08:40:36;99516.16;;;8.26;100.00
47670;BME280;33408;52.062;11.722;2024-03-29T08:43:06;99515.88;;;8.35;100.00
47670;BME280;33408;52.062;11.722;2024-03-29T08:45:32;99515.78;;;8.38;100.00
47670;BME280;33408;52.062;11.722;2024-03-29T08:47:59;99507.94;;;8.43;100.00
47670;BME280;33408;52.062;11.722;2024-03-29T08:50:25;99499.28;;;8.46;100.00
47670;BME280;33408;52.062;11.722;2024-03-29T08:52:52;99495.47;;;8.57;100.00
47670;BME280;33408;52.062;11.722;2024-03-29T08:55:19;99497.91;;;8.62;100.00
47670;BME280;33408;52.062;11.722;2024-03-29T08:57:47;99493.28;;;8.73;100.00
47670;BME280;33408;52.062;11.722;2024-03-29T09:00:14;99487.34;;;8.70;100.00
47670;BME280;33408;52.062;11.722;2024-03-29T09:02:41;99489.25;;;8.65;100.00
47670;BME280;33408;52.062;11.722;2024-03-29T09:05:07;99481.00;;;8.80;100.00
47670;BME280;33408;52.062;11.722;2024-03-29T09:07:34;99481.00;;;8.80;100.00
47670;BME280;33408;52.062;11.722;2024-03-29T09:10:03;99480.84;;;8.85;100.00
47670;BME280;33408;52.062;11.722;2024-03-29T09:12:29;99474.50;;;8.95;100.00
47670;BME280;33408;52.062;11.722;2024-03-29T09:14:58;99466.53;;;9.01;100.00
47670;BME280;33408;52.062;11.722;2024-03-29T09:17:24;99469.03;;;9.04;100.00
47670;BME280;33408;52.062;11.722;2024-03-29T09:19:52;99456.56;;;9.17;100.00
47670;BME280;33408;52.062;11.722;2024-03-29T09:22:19;99457.50;;;9.15;100.00
47670;BME280;33408;52.062;11.722;2024-03-29T09:24:45;99444.34;;;9.21;100.00
47670;BME280;33408;52.062;11.722;2024-03-29T09:27:13;99443.03;;;9.36;100.00
47670;BME280;33408;52.062;11.722;2024-03-29T09:29:39;99440.97;;;9.45;100.00
47670;BME280;33408;52.062;11.722;2024-03-29T09:32:07;99439.84;;;9.53;100.00
47670;BME280;33408;52.062;11.722;2024-03-29T09:34:34;99443.16;;;9.56;100.00
47670;BME280;33408;52.062;11.722;2024-03-29T09:37:01;99438.34;;;9.71;100.00
47670;BME280;33408;52.062;11.722;2024-03-29T09:39:27;99437.66;;;9.65;100.00
47670;BME280;33408;52.062;11.722;2024-03-29T09:41:57;99436.78;;;9.66;100.00
47670;BME280;33408;52.062;11.722;2024-03-29T09:44:27;99429.63;;;9.73;100.00
47670;BME280;33408;52.062;11.722;2024-03-29T09:46:58;99428.28;;;9.86;100.00
47670;BME280;33408;52.062;11.722;2024-03-29T09:49:29;99424.81;;;9.88;100.00
47670;BME280;33408;52.062;11.722;2024-03-29T09:51:57;99429.09;;;9.89;100.00
47670;BME280;33408;52.062;11.722;2024-03-29T09:54:26;99426.59;;;9.85;100.00
47670;BME280;33408;52.062;11.722;2024-03-29T09:56:53;99426.34;;;9.92;100.00
47670;BME280;33408;52.062;11.722;2024-03-29T09:59:20;99427.13;;;9.95;100.00
47670;BME280;33408;52.062;11.722;2024-03-29T10:01:48;99423.84;;;9.90;100.00
47670;BME280;33408;52.062;11.722;2024-03-29T10:04:16;99423.38;;;10.02;100.00
47670;BME280;33408;52.062;11.722;2024-03-29T10:06:46;99423.59;;;10.20;100.00
47670;BME280;33408;52.062;11.722;2024-03-29T10:09:14;99423.44;;;10.25;100.00
47670;BME280;33408;52.062;11.722;2024-03-29T10:11:42;99415.41;;;10.32;100.00
47670;BME280;33408;52.062;11.722;2024-03-29T10:14:09;99424.38;;;10.46;100.00
47670;BME280;33408;52.062;11.722;2024-03-29T10:16:36;99419.25;;;10.66;100.00
47670;BME280;33408;52.062;11.722;2024-03-29T10:19:03;99415.50;;;10.73;100.00
47670;BME280;33408;52.062;11.722;2024-03-29T10:21:31;99413.38;;;10.83;100.00
47670;BME280;33408;52.062;11.722;2024-03-29T10:24:11;99404.84;;;11.02;100.00
47670;BME280;33408;52.062;11.722;2024-03-29T10:26:37;99413.75;;;11.17;100.00
47670;BME280;33408;52.062;11.722;2024-03-29T10:29:04;99419.81;;;11.36;100.00
47670;BME280;33408;52.062;11.722;2024-03-29T10:31:34;99404.31;;;11.55;100.00
47670;BME280;33408;52.062;11.722;2024-03-29T10:34:02;99405.94;;;11.77;100.00
47670;BME280;33408;52.062;11.722;2024-03-29T10:36:30;99407.44;;;11.82;100.00
47670;BME280;33408;52.062;11.722;2024-03-29T10:39:02;99396.53;;;11.95;100.00
47670;BME280;33408;52.062;11.722;2024-03-29T10:41:36;99391.56;;;12.09;100.00
47670;BME280;33408;52.062;11.722;2024-03-29T10:44:08;99388.22;;;12.06;100.00
47670;BME280;33408;52.062;11.722;2024-03-29T10:46:36;99392.66;;;12.03;100.00
47670;BME280;33408;52.062;11.722;2024-03-29T10:49:06;99401.28;;;12.04;100.00
47670;BME280;33408;52.062;11.722;2024-03-29T10:51:38;99393.50;;;12.04;100.00
47670;BME280;33408;52.062;11.722;2024-03-29T10:54:08;99376.25;;;12.22;100.00
47670;BME280;33408;52.062;11.722;2024-03-29T10:56:36;99388.22;;;12.25;100.00
47670;BME280;33408;52.062;11.722;2024-03-29T10:59:08;99386.13;;;12.14;100.00
47670;BME280;33408;52.062;11.722;2024-03-29T11:01:41;99409.53;;;11.95;100.00
47670;BME280;33408;52.062;11.722;2024-03-29T11:04:13;99402.88;;;11.88;100.00
47670;BME280;33408;52.062;11.722;2024-03-29T11:06:44;99396.69;;;11.71;100.00
47670;BME280;33408;52.062;11.722;2024-03-29T11:09:16;99404.53;;;11.70;100.00
47670;BME280;33408;52.062;11.722;2024-03-29T11:11:50;99410.38;;;11.75;100.00
47670;BME280;33408;52.062;11.722;2024-03-29T11:14:20;99414.25;;;11.85;100.00
47670;BME280;33408;52.062;11.722;2024-03-29T11:16:49;99420.50;;;11.81;100.00
47670;BME280;33408;52.062;11.722;2024-03-29T11:19:20;99420.94;;;11.70;100.00
47670;BME280;33408;52.062;11.722;2024-03-29T11:21:47;99435.06;;;11.64;100.00
47670;BME280;33408;52.062;11.722;2024-03-29T11:24:17;99432.59;;;11.61;100.00
47670;BME280;33408;52.062;11.722;2024-03-29T11:26:45;99428.69;;;11.51;100.00
47670;BME280;33408;52.062;11.722;2024-03-29T11:29:18;99425.00;;;11.57;100.00
47670;BME280;33408;52.062;11.722;2024-03-29T11:31:45;99427.97;;;11.68;100.00
47670;BME280;33408;52.062;11.722;2024-03-29T11:34:12;99438.94;;;11.54;100.00
47670;BME280;33408;52.062;11.722;2024-03-29T11:36:39;99431.59;;;11.64;100.00
47670;BME280;33408;52.062;11.722;2024-03-29T11:39:05;99436.41;;;11.73;100.00
47670;BME280;33408;52.062;11.722;2024-03-29T11:41:33;99425.66;;;11.62;100.00
47670;BME280;33408;52.062;11.722;2024-03-29T11:43:59;99417.31;;;11.74;100.00
47670;BME280;33408;52.062;11.722;2024-03-29T11:46:27;99412.06;;;11.76;100.00
47670;BME280;33408;52.062;11.722;2024-03-29T11:48:58;99401.59;;;11.98;100.00
47670;BME280;33408;52.062;11.722;2024-03-29T11:51:27;99386.91;;;11.97;100.00
47670;BME280;33408;52.062;11.722;2024-03-29T11:53:54;99386.34;;;12.09;100.00
47670;BME280;33408;52.062;11.722;2024-03-29T11:56:23;99398.41;;;12.10;100.00
47670;BME280;33408;52.062;11.722;2024-03-29T11:58:52;99402.72;;;12.11;100.00
47670;BME280;33408;52.062;11.722;2024-03-29T12:01:25;99396.78;;;12.27;100.00
47670;BME280;33408;52.062;11.722;2024-03-29T12:03:51;99387.41;;;12.24;100.00
47670;BME280;33408;52.062;11.722;2024-03-29T12:06:19;99395.88;;;12.28;100.00
47670;BME280;33408;52.062;11.722;2024-03-29T12:08:46;99388.63;;;12.34;100.00
47670;BME280;33408;52.062;11.722;2024-03-29T12:11:15;99379.44;;;12.46;100.00
47670;BME280;33408;52.062;11.722;2024-03-29T12:13:44;99388.53;;;12.55;100.00
47670;BME280;33408;52.062;11.722;2024-03-29T12:16:12;99386.97;;;12.51;100.00
47670;BME280;33408;52.062;11.722;2024-03-29T12:18:39;99403.97;;;12.58;100.00
47670;BME280;33408;52.062;11.722;2024-03-29T12:21:05;99412.28;;;12.47;100.00
47670;BME280;33408;52.062;11.722;2024-03-29T12:23:31;99393.16;;;12.67;100.00
47670;BME280;33408;52.062;11.722;2024-03-29T12:26:00;99385.56;;;12.63;100.00
47670;BME280;33408;52.062;11.722;2024-03-29T12:28:27;99380.75;;;12.72;100.00
47670;BME280;33408;52.062;11.722;2024-03-29T12:30:56;99383.28;;;12.74;100.00
47670;BME280;33408;52.062;11.722;2024-03-29T12:33:24;99392.59;;;12.78;100.00
47670;BME280;33408;52.062;11.722;2024-03-29T12:35:52;99403.88;;;12.79;100.00
47670;BME280;33408;52.062;11.722;2024-03-29T12:38:20;99404.09;;;12.91;100.00
47670;BME280;33408;52.062;11.722;2024-03-29T12:40:54;99404.84;;;12.93;100.00
47670;BME280;33408;52.062;11.722;2024-03-29T12:43:23;99401.66;;;13.06;100.00
47670;BME280;33408;52.062;11.722;2024-03-29T12:45:50;99380.13;;;13.02;100.00
47670;BME280;33408;52.062;11.722;2024-03-29T12:48:18;99380.13;;;13.20;100.00